Time;durP1;ratioP1;P1;durP2;ratioP2;P2;SDS_P1;SDS_P2;PMS_P1;PMS_P2;Temp;Humidity;BMP_temperature;BMP_pressure;BME280_temperature;BME280_humidity;BME280_pressure;Samples;Min_cycle;Max_cycle;Signal;HPM_P1;HPM_P2
2021/10/30 00:01:14;;;;;;;7.57;3.87;;;9.90;65.60;;;;;;2317393;54;21011;-69
2021/10/30 00:03:40;;;;;;;7.25;3.97;;;9.90;65.60;;;;;;2431450;53;20948;-71
2021/10/30 00:06:10;;;;;;;7.07;3.83;;;9.90;65.70;;;;;;2322016;53;20971;-71
2021/10/30 00:08:37;;;;;;;8.23;3.60;;;9.90;65.80;;;;;;2301789;55;20963;-70
2021/10/30 00:11:03;;;;;;;6.53;3.62;;;9.90;65.80;;;;;;2309512;54;20991;-69
2021/10/30 00:13:30;;;;;;;6.78;3.50;;;9.90;65.70;;;;;;2342597;54;20943;-70
2021/10/30 00:15:58;;;;;;;6.62;3.70;;;9.80;65.50;;;;;;2292930;55;20946;-69
2021/10/30 00:18:26;;;;;;;6.78;3.40;;;9.80;65.50;;;;;;2315071;54;21070;-71
2021/10/30 00:20:52;;;;;;;7.57;3.60;;;9.80;65.50;;;;;;2308654;54;20972;-72
2021/10/30 00:23:19;;;;;;;5.57;3.25;;;9.80;65.40;;;;;;2315246;54;21508;-66
2021/10/30 00:25:45;;;;;;;7.15;2.85;;;9.70;65.40;;;;;;2307892;54;20964;-69
2021/10/30 00:28:12;;;;;;;5.85;2.65;;;9.70;65.40;;;;;;2551899;53;20948;-71
2021/10/30 00:30:38;;;;;;;5.07;2.62;;;9.70;65.40;;;;;;2317186;54;20975;-72
2021/10/30 00:33:05;;;;;;;7.30;2.87;;;9.70;65.30;;;;;;2381221;54;21007;-70
2021/10/30 00:35:34;;;;;;;4.90;2.35;;;9.60;65.20;;;;;;2318250;54;21032;-69
2021/10/30 00:38:01;;;;;;;4.85;2.35;;;9.70;65.30;;;;;;2558513;53;21002;-71
2021/10/30 00:40:29;;;;;;;5.10;2.47;;;9.60;65.30;;;;;;2314551;54;21068;-67
2021/10/30 00:42:56;;;;;;;4.78;2.37;;;9.60;65.50;;;;;;2541757;54;20923;-70
2021/10/30 00:45:22;;;;;;;6.28;2.60;;;9.50;65.50;;;;;;2312713;54;20926;-71
2021/10/30 00:47:51;;;;;;;6.87;2.70;;;9.50;65.50;;;;;;2314525;54;21095;-73
2021/10/30 00:50:18;;;;;;;5.22;2.35;;;9.50;65.50;;;;;;2327511;53;20949;-69
2021/10/30 00:52:44;;;;;;;4.70;2.45;;;9.40;65.40;;;;;;2321834;53;20949;-70
2021/10/30 00:55:12;;;;;;;5.62;2.65;;;9.40;65.40;;;;;;2306645;53;20919;-72
2021/10/30 00:57:40;;;;;;;6.07;2.83;;;9.40;65.40;;;;;;2320388;54;20941;-71
2021/10/30 01:00:07;;;;;;;5.43;2.60;;;9.40;65.40;;;;;;2319798;54;20945;-67
2021/10/30 01:02:33;;;;;;;4.82;2.53;;;9.40;65.30;;;;;;2311610;53;20935;-72
2021/10/30 01:04:59;;;;;;;4.95;2.53;;;9.30;65.20;;;;;;2523717;53;21003;-70
2021/10/30 01:07:27;;;;;;;6.22;2.95;;;9.30;65.30;;;;;;2301083;54;21782;-69
2021/10/30 01:09:53;;;;;;;4.85;2.53;;;9.30;65.40;;;;;;2311641;54;21004;-71
2021/10/30 01:12:19;;;;;;;6.40;2.65;;;9.30;65.40;;;;;;2317417;54;20992;-70
2021/10/30 01:14:45;;;;;;;4.72;2.33;;;9.20;65.30;;;;;;2317673;55;20955;-72
2021/10/30 01:17:14;;;;;;;4.53;2.35;;;9.20;65.40;;;;;;2316982;55;21036;-70
2021/10/30 01:19:41;;;;;;;4.50;2.45;;;9.20;66.20;;;;;;2317636;54;20947;-68
2021/10/30 01:22:07;;;;;;;4.70;1.98;;;9.20;65.60;;;;;;2317680;55;21070;-68
2021/10/30 01:24:33;;;;;;;4.65;2.10;;;9.20;65.60;;;;;;2315079;55;21830;-73
2021/10/30 01:27:00;;;;;;;3.75;1.90;;;9.10;65.50;;;;;;2315429;54;20959;-71
2021/10/30 01:29:27;;;;;;;4.15;2.20;;;9.10;65.50;;;;;;2318640;54;20929;-70
2021/10/30 01:31:54;;;;;;;5.32;2.15;;;9.10;65.50;;;;;;2317150;54;21035;-67
2021/10/30 01:34:25;;;;;;;4.00;2.10;;;9.10;65.60;;;;;;2321305;54;20972;-74
2021/10/30 01:36:53;;;;;;;4.28;2.00;;;9.10;65.50;;;;;;2314247;54;21937;-71
2021/10/30 01:39:19;;;;;;;4.35;1.77;;;9.10;65.50;;;;;;2549494;53;20965;-71
2021/10/30 01:41:45;;;;;;;3.53;1.67;;;9.00;65.50;;;;;;2324955;55;20955;-70
2021/10/30 01:44:13;;;;;;;3.20;1.70;;;9.00;66.20;;;;;;2311819;55;21050;-72
2021/10/30 01:46:39;;;;;;;3.53;1.80;;;9.00;65.50;;;;;;2317609;54;20947;-70
2021/10/30 01:49:06;;;;;;;4.18;2.00;;;9.00;65.50;;;;;;2317560;54;20942;-67
2021/10/30 01:51:32;;;;;;;3.90;2.15;;;9.00;65.50;;;;;;2317827;54;20987;-70
2021/10/30 01:54:01;;;;;;;3.90;2.35;;;8.90;65.40;;;;;;2314889;54;20968;-72
2021/10/30 01:56:27;;;;;;;4.43;2.10;;;8.90;65.60;;;;;;2307321;54;21048;-68
2021/10/30 01:58:54;;;;;;;4.12;1.92;;;8.90;65.60;;;;;;2317172;55;20947;-71
2021/10/30 02:01:21;;;;;;;5.37;1.77;;;8.90;65.50;;;;;;2317328;54;20939;-72
2021/10/30 02:03:47;;;;;;;3.70;2.00;;;8.90;65.50;;;;;;2299142;54;21026;-71
2021/10/30 02:06:13;;;;;;;4.72;2.10;;;8.90;65.50;;;;;;2317619;54;20967;-69
2021/10/30 02:08:39;;;;;;;3.30;1.50;;;8.80;65.40;;;;;;2314973;54;20929;-67
2021/10/30 02:11:08;;;;;;;3.20;1.92;;;8.90;65.50;;;;;;2311124;54;21003;-72
2021/10/30 02:13:34;;;;;;;3.80;1.80;;;8.80;65.40;;;;;;2318231;54;20980;-73
2021/10/30 02:16:01;;;;;;;3.97;1.83;;;8.80;65.60;;;;;;2313882;54;21039;-71
2021/10/30 02:18:28;;;;;;;4.37;1.80;;;8.80;65.60;;;;;;2316121;54;21038;-68
2021/10/30 02:20:54;;;;;;;5.78;1.77;;;8.80;65.50;;;;;;2504686;53;20947;-73
2021/10/30 02:23:21;;;;;;;3.35;1.90;;;8.80;65.50;;;;;;2441899;54;20983;-70
2021/10/30 02:25:47;;;;;;;4.18;2.17;;;8.70;65.50;;;;;;2540895;54;20987;-71
2021/10/30 02:28:14;;;;;;;3.72;1.85;;;8.70;65.50;;;;;;2311171;55;21476;-66
2021/10/30 02:30:41;;;;;;;4.32;2.00;;;8.70;65.60;;;;;;2314497;54;20997;-71
2021/10/30 02:33:07;;;;;;;4.60;2.22;;;8.70;65.60;;;;;;2339490;54;21057;-70
2021/10/30 02:35:34;;;;;;;3.90;2.08;;;8.70;65.70;;;;;;2302509;55;20978;-71
2021/10/30 02:38:02;;;;;;;4.03;2.03;;;8.70;65.70;;;;;;2299723;54;21890;-71
2021/10/30 02:40:29;;;;;;;4.18;1.92;;;8.70;65.70;;;;;;2311582;54;21380;-72
2021/10/30 02:42:55;;;;;;;5.70;2.20;;;8.70;65.70;;;;;;2318452;54;21026;-71
2021/10/30 02:45:21;;;;;;;4.72;2.08;;;8.70;65.70;;;;;;2337613;54;21015;-68
2021/10/30 02:47:48;;;;;;;3.87;1.77;;;8.70;65.80;;;;;;2315233;54;20935;-70
2021/10/30 02:50:14;;;;;;;4.45;2.17;;;8.60;65.70;;;;;;2317574;54;21458;-74
2021/10/30 02:52:40;;;;;;;4.12;2.00;;;8.60;65.70;;;;;;2318992;55;21026;-70
2021/10/30 02:55:08;;;;;;;3.60;1.98;;;8.60;65.70;;;;;;2505933;53;20899;-71
2021/10/30 02:57:35;;;;;;;3.62;1.95;;;8.60;65.70;;;;;;2328656;54;20971;-73
2021/10/30 03:00:04;;;;;;;3.45;1.60;;;8.60;65.70;;;;;;2436473;53;20967;-72
2021/10/30 03:02:30;;;;;;;4.32;2.20;;;8.60;65.70;;;;;;2345531;54;20947;-68
2021/10/30 03:04:57;;;;;;;4.18;2.17;;;8.60;65.70;;;;;;2560532;53;21023;-71
2021/10/30 03:07:23;;;;;;;3.97;2.10;;;8.60;65.80;;;;;;2318006;54;20979;-69
2021/10/30 03:09:50;;;;;;;3.80;1.87;;;8.60;65.80;;;;;;2349253;53;21017;-71
2021/10/30 03:12:17;;;;;;;4.00;2.17;;;8.60;65.70;;;;;;2346089;54;20935;-69
2021/10/30 03:14:47;;;;;;;4.20;2.15;;;8.60;65.70;;;;;;2295496;55;20971;-71
2021/10/30 03:17:13;;;;;;;3.60;1.83;;;8.60;65.70;;;;;;2309643;55;21007;-70
2021/10/30 03:19:39;;;;;;;6.43;1.85;;;8.60;65.80;;;;;;2510065;53;20986;-72
2021/10/30 03:22:06;;;;;;;4.90;2.42;;;8.60;65.90;;;;;;2308765;55;21021;-68
2021/10/30 03:24:33;;;;;;;4.43;2.10;;;8.60;65.90;;;;;;2313584;55;20999;-67
2021/10/30 03:27:00;;;;;;;6.18;2.22;;;8.60;65.70;;;;;;2317304;55;20994;-68
2021/10/30 03:29:26;;;;;;;5.43;2.65;;;8.50;65.70;;;;;;2317411;55;20948;-68
2021/10/30 03:31:53;;;;;;;5.28;2.15;;;8.50;66.50;;;;;;2307375;55;21014;-68
2021/10/30 03:34:20;;;;;;;4.97;2.47;;;8.50;65.90;;;;;;2405062;54;21041;-70
2021/10/30 03:36:47;;;;;;;4.28;2.12;;;8.50;66.00;;;;;;2294597;55;20996;-70
2021/10/30 03:39:13;;;;;;;5.75;1.92;;;8.50;66.10;;;;;;2317193;54;21018;-70
2021/10/30 03:41:40;;;;;;;4.62;2.33;;;8.50;66.10;;;;;;2481023;53;20990;-72
2021/10/30 03:44:06;;;;;;;5.10;2.70;;;8.50;66.10;;;;;;2485171;54;20978;-70
2021/10/30 03:46:32;;;;;;;4.65;2.80;;;8.50;66.10;;;;;;2343946;54;21036;-71
2021/10/30 03:48:59;;;;;;;5.20;2.70;;;8.50;66.10;;;;;;2321569;54;21003;-72
2021/10/30 03:51:25;;;;;;;5.75;2.37;;;8.60;66.20;;;;;;2317169;55;20999;-71
2021/10/30 03:53:55;;;;;;;4.97;2.30;;;8.50;66.20;;;;;;2397074;54;20953;-72
2021/10/30 03:56:21;;;;;;;4.53;2.53;;;8.60;66.40;;;;;;2294024;55;20959;-74
2021/10/30 03:58:47;;;;;;;5.30;2.50;;;8.60;66.40;;;;;;2317201;55;21452;-73
2021/10/30 04:01:13;;;;;;;4.07;2.22;;;8.60;66.50;;;;;;2375480;53;21040;-69
2021/10/30 04:03:40;;;;;;;5.40;2.95;;;8.60;66.60;;;;;;2310883;55;20986;-72
2021/10/30 04:06:07;;;;;;;5.25;2.30;;;8.60;66.60;;;;;;2300010;54;21026;-70
2021/10/30 04:08:34;;;;;;;7.03;2.42;;;8.60;66.60;;;;;;2318913;55;20962;-66
2021/10/30 04:11:00;;;;;;;4.10;2.12;;;8.60;66.70;;;;;;2317456;55;21471;-69
2021/10/30 04:13:28;;;;;;;4.22;2.33;;;8.60;66.70;;;;;;2558265;53;20926;-69
2021/10/30 04:15:54;;;;;;;5.43;2.60;;;8.70;66.80;;;;;;2490433;53;21030;-69
2021/10/30 04:18:21;;;;;;;6.80;2.50;;;8.70;66.80;;;;;;2305383;54;21739;-69
2021/10/30 04:20:47;;;;;;;3.67;2.12;;;8.70;66.80;;;;;;2307339;54;22021;-68
2021/10/30 04:23:14;;;;;;;4.50;2.45;;;8.70;66.70;;;;;;2316611;54;21038;-70
2021/10/30 04:25:40;;;;;;;4.37;2.40;;;8.70;66.70;;;;;;2318737;54;20974;-67
2021/10/30 04:28:06;;;;;;;4.28;2.70;;;8.70;66.40;;;;;;2496257;53;20987;-67
2021/10/30 04:30:33;;;;;;;4.22;2.58;;;8.70;66.30;;;;;;2321247;54;21051;-69
2021/10/30 04:33:01;;;;;;;4.35;2.70;;;8.70;66.30;;;;;;2361620;54;21087;-68
2021/10/30 04:35:27;;;;;;;6.28;2.55;;;8.70;66.20;;;;;;2317316;54;21023;-71
2021/10/30 04:37:53;;;;;;;4.85;2.90;;;8.70;66.20;;;;;;2417184;54;20988;-73
2021/10/30 04:40:20;;;;;;;5.65;2.92;;;8.70;66.20;;;;;;2306943;54;21046;-70
2021/10/30 04:42:47;;;;;;;5.40;2.17;;;8.70;66.30;;;;;;2532428;54;20951;-68
2021/10/30 04:45:13;;;;;;;6.55;2.67;;;8.70;66.40;;;;;;2319960;54;21542;-71
2021/10/30 04:47:39;;;;;;;5.15;2.90;;;8.70;66.50;;;;;;2547976;53;20959;-69
2021/10/30 04:50:06;;;;;;;3.70;2.10;;;8.70;66.70;;;;;;2317417;54;21849;-72
2021/10/30 04:52:32;;;;;;;4.32;2.30;;;8.70;66.70;;;;;;2317889;54;20958;-72
2021/10/30 04:54:59;;;;;;;4.28;2.55;;;8.70;66.80;;;;;;2318184;54;21464;-66
2021/10/30 04:57:25;;;;;;;4.62;2.50;;;8.70;66.80;;;;;;2558062;53;21412;-68
2021/10/30 04:59:52;;;;;;;4.12;2.55;;;8.60;66.70;;;;;;2317159;54;21043;-70
2021/10/30 05:02:18;;;;;;;5.43;2.97;;;8.80;66.90;;;;;;2311118;54;20977;-69
2021/10/30 05:04:45;;;;;;;5.07;2.67;;;8.70;66.70;;;;;;2302555;53;20941;-71
2021/10/30 05:07:11;;;;;;;6.62;3.05;;;8.80;66.80;;;;;;2317199;54;20990;-71
2021/10/30 05:09:38;;;;;;;4.28;2.40;;;8.80;66.90;;;;;;2346782;54;20986;-67
2021/10/30 05:12:07;;;;;;;4.60;2.75;;;8.80;67.00;;;;;;2503693;53;21803;-69
2021/10/30 05:14:36;;;;;;;5.68;3.10;;;8.80;66.90;;;;;;2311658;54;21049;-69
2021/10/30 05:17:05;;;;;;;5.00;2.87;;;8.80;66.80;;;;;;2321184;55;20936;-72
2021/10/30 05:19:32;;;;;;;6.00;3.30;;;8.80;66.80;;;;;;2320714;55;20960;-69
2021/10/30 05:21:59;;;;;;;7.65;3.42;;;8.80;66.80;;;;;;2576935;53;20913;-71
2021/10/30 05:24:25;;;;;;;8.55;4.47;;;8.80;66.90;;;;;;2567047;53;21833;-70
2021/10/30 05:26:52;;;;;;;10.98;5.20;;;8.80;67.00;;;;;;2386939;54;20965;-71
2021/10/30 05:29:18;;;;;;;8.38;4.28;;;8.90;67.10;;;;;;2581157;53;20924;-69
2021/10/30 05:31:45;;;;;;;8.13;4.47;;;8.90;67.10;;;;;;2335713;53;21052;-71
2021/10/30 05:34:11;;;;;;;7.62;3.87;;;8.90;67.20;;;;;;2393510;53;21013;-69
2021/10/30 05:36:39;;;;;;;8.30;4.00;;;8.90;67.20;;;;;;2324747;54;21871;-73
2021/10/30 05:39:06;;;;;;;7.87;3.97;;;8.90;67.10;;;;;;2313428;55;21167;-71
2021/10/30 05:41:33;;;;;;;6.90;3.90;;;9.00;67.30;;;;;;2321204;54;21018;-73
2021/10/30 05:44:01;;;;;;;12.18;7.00;;;9.00;67.30;;;;;;2316899;55;21442;-71
2021/10/30 05:46:28;;;;;;;17.23;8.88;;;9.00;67.30;;;;;;2443975;54;21068;-71
2021/10/30 05:48:54;;;;;;;20.70;10.57;;;9.00;67.30;;;;;;2307950;54;21050;-71
2021/10/30 05:51:21;;;;;;;15.82;8.77;;;9.10;67.30;;;;;;2368737;53;20945;-69
2021/10/30 05:53:48;;;;;;;14.18;7.85;;;9.10;67.30;;;;;;2295506;55;21108;-69
2021/10/30 05:56:15;;;;;;;14.52;8.23;;;9.10;67.30;;;;;;2482634;53;20965;-70
2021/10/30 05:58:43;;;;;;;13.73;8.00;;;9.10;67.30;;;;;;2351822;54;21019;-73
2021/10/30 06:01:10;;;;;;;9.93;6.70;;;9.10;67.30;;;;;;2535410;53;21491;-73
2021/10/30 06:03:36;;;;;;;9.55;5.60;;;9.20;67.40;;;;;;2316978;54;21024;-74
2021/10/30 06:06:06;;;;;;;12.05;6.80;;;9.20;67.30;;;;;;2534416;54;21003;-69
2021/10/30 06:08:34;;;;;;;10.23;6.20;;;9.20;67.40;;;;;;2318115;54;21493;-72
2021/10/30 06:11:01;;;;;;;8.85;5.80;;;9.20;67.40;;;;;;2404600;54;21049;-69
2021/10/30 06:13:27;;;;;;;8.30;5.05;;;9.20;67.50;;;;;;2346596;54;21497;-74
2021/10/30 06:15:57;;;;;;;13.23;4.82;;;9.30;67.50;;;;;;2352739;54;21080;-71
2021/10/30 06:18:23;;;;;;;8.18;4.55;;;9.30;67.50;;;;;;2318274;54;20968;-68
2021/10/30 06:20:50;;;;;;;7.85;4.22;;;9.30;67.50;;;;;;2314087;55;21001;-67
2021/10/30 06:23:16;;;;;;;7.20;4.15;;;9.30;67.50;;;;;;2304335;55;20945;-71
2021/10/30 06:25:43;;;;;;;7.12;3.55;;;9.30;67.50;;;;;;2457678;54;21378;-74
2021/10/30 06:28:10;;;;;;;5.80;3.58;;;9.30;67.50;;;;;;2311130;55;20969;-74
2021/10/30 06:30:37;;;;;;;8.20;3.40;;;9.40;67.60;;;;;;2548147;54;20954;-71
2021/10/30 06:33:05;;;;;;;7.28;3.75;;;9.40;67.60;;;;;;2332604;54;21020;-69
2021/10/30 06:35:32;;;;;;;6.50;3.35;;;9.40;67.50;;;;;;2357896;54;20972;-72
2021/10/30 06:37:58;;;;;;;6.97;4.45;;;9.40;67.50;;;;;;2311897;54;21031;-71
2021/10/30 06:40:24;;;;;;;6.12;3.97;;;9.40;67.50;;;;;;2328357;54;21778;-72
2021/10/30 06:42:51;;;;;;;5.97;4.12;;;9.40;67.40;;;;;;2286754;55;20967;-68
2021/10/30 06:45:18;;;;;;;6.68;3.92;;;9.50;67.60;;;;;;2377302;54;20962;-69
2021/10/30 06:47:44;;;;;;;8.50;4.37;;;9.50;67.60;;;;;;2274248;55;20967;-72
2021/10/30 06:50:20;;;;;;;7.97;4.30;;;9.50;67.60;;;;;;2315858;54;21056;-71
2021/10/30 06:52:49;;;;;;;8.32;4.70;;;9.50;67.60;;;;;;2326416;53;20947;-72
2021/10/30 06:55:16;;;;;;;7.22;4.53;;;9.50;67.50;;;;;;2321856;54;21056;-71
2021/10/30 06:57:42;;;;;;;8.90;5.55;;;9.60;67.50;;;;;;2317652;54;21823;-70
2021/10/30 07:00:10;;;;;;;7.22;4.50;;;9.60;67.60;;;;;;2349147;53;21525;-67
2021/10/30 07:02:36;;;;;;;8.02;5.12;;;9.60;67.50;;;;;;2316589;54;21014;-68
2021/10/30 07:05:05;;;;;;;9.45;4.75;;;9.60;67.50;;;;;;2556207;54;21094;-71
2021/10/30 07:07:32;;;;;;;10.05;5.35;;;9.60;67.40;;;;;;2316906;54;21009;-71
2021/10/30 07:09:59;;;;;;;8.20;5.22;;;9.60;67.40;;;;;;2358483;54;21070;-72
2021/10/30 07:12:29;;;;;;;8.73;4.87;;;9.60;67.30;;;;;;2314959;54;20891;-71
2021/10/30 07:14:56;;;;;;;7.68;4.68;;;9.60;67.30;;;;;;2520367;53;20989;-72
2021/10/30 07:17:22;;;;;;;7.53;4.95;;;9.60;67.40;;;;;;2309118;54;20972;-74
2021/10/30 07:19:50;;;;;;;8.10;4.55;;;9.50;68.10;;;;;;2315661;54;21049;-70
2021/10/30 07:22:16;;;;;;;7.07;4.15;;;9.70;67.70;;;;;;2322260;54;21568;-71
2021/10/30 07:24:43;;;;;;;8.48;4.43;;;9.60;67.70;;;;;;2478883;54;20967;-73
2021/10/30 07:27:10;;;;;;;7.37;4.07;;;9.70;67.80;;;;;;2316895;54;20963;-73
2021/10/30 07:29:37;;;;;;;6.82;4.15;;;9.70;67.90;;;;;;2360577;54;21035;-68
2021/10/30 07:32:04;;;;;;;6.75;4.40;;;9.70;67.90;;;;;;2450669;54;20971;-74
2021/10/30 07:34:31;;;;;;;6.30;3.62;;;9.80;68.10;;;;;;2319117;54;20885;-70
2021/10/30 07:36:57;;;;;;;7.62;4.70;;;9.90;68.20;;;;;;2313868;54;21010;-70
2021/10/30 07:39:24;;;;;;;8.70;4.85;;;9.80;68.10;;;;;;2325960;54;20915;-70
2021/10/30 07:41:50;;;;;;;6.93;4.18;;;9.90;68.20;;;;;;2342385;55;21097;-70
2021/10/30 07:44:18;;;;;;;6.72;4.30;;;9.90;68.00;;;;;;2337546;55;20957;-71
2021/10/30 07:46:44;;;;;;;7.03;4.60;;;9.90;68.00;;;;;;2320813;54;21000;-71
2021/10/30 07:49:11;;;;;;;7.45;4.93;;;10.00;66.90;;;;;;2321248;54;21012;-71
2021/10/30 07:51:37;;;;;;;7.97;4.65;;;10.00;67.10;;;;;;2320756;54;20950;-68
2021/10/30 07:54:04;;;;;;;7.75;4.80;;;10.00;66.70;;;;;;2355914;54;20965;-67
2021/10/30 07:56:30;;;;;;;9.48;5.07;;;10.00;66.70;;;;;;2323642;54;21873;-72
2021/10/30 07:58:56;;;;;;;8.15;5.25;;;10.00;66.60;;;;;;2322183;55;20943;-69
2021/10/30 08:01:23;;;;;;;7.45;4.72;;;10.00;66.60;;;;;;2344183;54;20968;-70
2021/10/30 08:03:49;;;;;;;6.90;4.87;;;10.10;66.70;;;;;;2421285;53;21040;-75
2021/10/30 08:06:16;;;;;;;6.95;4.53;;;10.00;66.70;;;;;;2516257;53;20936;-74
2021/10/30 08:08:43;;;;;;;7.75;4.95;;;10.10;66.80;;;;;;2343727;54;20948;-70
2021/10/30 08:11:10;;;;;;;7.80;4.12;;;10.10;66.90;;;;;;2377146;54;20957;-72
2021/10/30 08:13:36;;;;;;;7.82;4.47;;;10.10;66.80;;;;;;2324993;54;20993;-71
2021/10/30 08:16:03;;;;;;;8.38;5.85;;;10.10;66.80;;;;;;2312704;55;21017;-68
2021/10/30 08:18:29;;;;;;;8.63;5.85;;;10.10;66.80;;;;;;2331780;54;21008;-73
2021/10/30 08:20:56;;;;;;;10.23;5.97;;;10.20;66.90;;;;;;2343875;54;21135;-68
2021/10/30 08:23:22;;;;;;;10.02;5.30;;;10.20;66.90;;;;;;2359087;53;21021;-74
2021/10/30 08:25:49;;;;;;;8.15;5.07;;;10.20;66.90;;;;;;2321511;54;20961;-69
2021/10/30 08:28:16;;;;;;;7.70;4.95;;;10.30;67.00;;;;;;2344157;54;21004;-69
2021/10/30 08:30:42;;;;;;;5.90;3.83;;;10.30;66.90;;;;;;2329179;55;20945;-71
2021/10/30 08:33:11;;;;;;;6.85;4.53;;;10.30;67.00;;;;;;2333778;54;20933;-69
2021/10/30 08:35:39;;;;;;;6.62;4.30;;;10.30;67.00;;;;;;2438915;53;21021;-71
2021/10/30 08:38:09;;;;;;;7.20;4.97;;;10.30;67.00;;;;;;2324478;54;20929;-70
2021/10/30 08:40:38;;;;;;;8.32;5.47;;;10.40;67.00;;;;;;2387803;53;21349;-70
2021/10/30 08:43:29;;;;;;;9.23;6.22;;;10.50;67.00;;;;;;2321596;54;20999;-72
2021/10/30 08:45:56;;;;;;;8.77;6.03;;;10.40;66.80;;;;;;2344314;54;20932;-74
2021/10/30 08:48:25;;;;;;;9.50;5.93;;;10.50;66.90;;;;;;2344165;54;21018;-69
2021/10/30 08:50:52;;;;;;;8.85;5.80;;;10.50;66.80;;;;;;2344460;54;21325;-71
2021/10/30 08:53:22;;;;;;;9.68;5.28;;;10.50;66.80;;;;;;2346678;55;21008;-71
2021/10/30 08:55:54;;;;;;;8.43;4.93;;;10.50;66.70;;;;;;2315916;55;20940;-71
2021/10/30 08:58:23;;;;;;;9.98;5.68;;;10.50;66.70;;;;;;2341662;54;20920;-72
2021/10/30 09:00:52;;;;;;;8.68;4.80;;;10.50;66.60;;;;;;2315549;54;20960;-72
2021/10/30 09:03:19;;;;;;;7.00;4.20;;;10.50;66.50;;;;;;2326846;54;20951;-70
2021/10/30 09:05:48;;;;;;;9.43;5.07;;;10.50;66.50;;;;;;2341288;54;20944;-73
2021/10/30 09:08:15;;;;;;;8.18;4.37;;;10.50;66.60;;;;;;2327129;55;21085;-72
2021/10/30 09:10:46;;;;;;;5.97;3.83;;;10.60;66.70;;;;;;2314737;54;20985;-69
2021/10/30 09:13:12;;;;;;;7.07;4.78;;;10.60;66.80;;;;;;2418421;54;20956;-69
2021/10/30 09:15:47;;;;;;;7.57;4.87;;;10.60;66.80;;;;;;2300932;54;21491;-69
2021/10/30 09:18:40;;;;;;;8.02;5.30;;;10.50;67.30;;;;;;2292804;54;20975;-68
2021/10/30 09:21:28;;;;;;;;;;;;;;;;;;;;;
2021/10/30 09:23:59;;;;;;;7.65;4.72;;;10.50;66.40;;;;;;2318767;55;20967;-69
2021/10/30 09:26:30;;;;;;;15.05;9.13;;;10.50;66.50;;;;;;2352142;54;21510;-68
2021/10/30 09:29:13;;;;;;;16.12;9.10;;;10.50;66.60;;;;;;2314286;54;21825;-69
2021/10/30 09:31:40;;;;;;;18.25;10.38;;;10.60;66.80;;;;;;2418337;53;20994;-69
2021/10/30 09:34:07;;;;;;;18.17;9.05;;;10.50;66.80;;;;;;2368101;54;21587;-69
2021/10/30 09:36:40;;;;;;;10.40;6.60;;;10.50;66.80;;;;;;2329244;54;21882;-69
2021/10/30 09:39:11;;;;;;;8.38;5.85;;;10.60;67.00;;;;;;2323293;54;20978;-69
2021/10/30 09:41:42;;;;;;;11.50;6.12;;;10.60;67.10;;;;;;2319360;54;20941;-68
2021/10/30 09:44:18;;;;;;;9.63;5.93;;;10.60;67.20;;;;;;2512435;53;21530;-68
2021/10/30 09:46:56;;;;;;;8.43;5.43;;;10.60;67.10;;;;;;2297671;54;21035;-68
2021/10/30 09:49:27;;;;;;;8.10;5.25;;;10.60;67.10;;;;;;2406484;54;20987;-68
2021/10/30 09:52:09;;;;;;;8.80;5.30;;;10.70;67.20;;;;;;2331630;54;20963;-68
2021/10/30 09:54:47;;;;;;;9.27;5.60;;;10.70;67.00;;;;;;2301647;55;20963;-68
2021/10/30 09:57:31;;;;;;;8.48;5.53;;;10.70;67.00;;;;;;2319509;54;21458;-68
2021/10/30 10:00:00;;;;;;;8.23;5.22;;;10.70;67.10;;;;;;2316718;54;20946;-69
2021/10/30 10:02:26;;;;;;;8.57;5.28;;;10.70;67.10;;;;;;2315273;54;20947;-68
2021/10/30 10:04:53;;;;;;;10.88;5.82;;;10.70;67.10;;;;;;2313581;55;21002;-68
2021/10/30 10:07:20;;;;;;;7.90;5.37;;;10.70;67.20;;;;;;2297317;54;20944;-69
2021/10/30 10:09:48;;;;;;;9.25;5.93;;;10.70;67.30;;;;;;2317304;54;20931;-68
2021/10/30 10:12:14;;;;;;;8.65;6.35;;;10.70;67.40;;;;;;2317763;54;21003;-68
2021/10/30 10:14:42;;;;;;;11.75;6.85;;;10.80;67.50;;;;;;2311068;54;21004;-69
2021/10/30 10:17:11;;;;;;;7.10;5.28;;;10.80;67.40;;;;;;2309005;54;20979;-68
2021/10/30 10:19:37;;;;;;;9.13;6.03;;;10.80;67.50;;;;;;2394599;54;20954;-68
2021/10/30 10:22:04;;;;;;;11.15;6.90;;;10.80;67.40;;;;;;2319795;54;20947;-68
2021/10/30 10:24:43;;;;;;;11.02;7.25;;;10.90;67.50;;;;;;2507560;54;21030;-69
2021/10/30 10:27:09;;;;;;;11.20;6.82;;;10.90;67.40;;;;;;2557985;53;21941;-69
2021/10/30 10:29:42;;;;;;;7.95;5.43;;;10.90;67.30;;;;;;2317645;54;20947;-69
2021/10/30 10:32:18;;;;;;;9.57;6.28;;;10.90;67.20;;;;;;2397520;54;21004;-69
2021/10/30 10:34:45;;;;;;;10.52;6.25;;;10.90;67.10;;;;;;2317902;55;20947;-68
2021/10/30 10:37:22;;;;;;;9.18;6.07;;;10.90;67.20;;;;;;2317412;55;21049;-67
2021/10/30 10:39:59;;;;;;;9.32;5.70;;;10.90;67.30;;;;;;2317609;55;21384;-69
2021/10/30 10:43:44;;;;;;;7.37;5.03;;;10.90;67.40;;;;;;2498277;54;21000;-68
2021/10/30 10:46:10;;;;;;;8.57;4.75;;;10.90;67.60;;;;;;2317656;54;20933;-68
2021/10/30 10:48:42;;;;;;;8.75;5.68;;;10.90;67.50;;;;;;2317390;54;20950;-69
2021/10/30 10:51:20;;;;;;;11.95;6.43;;;11.00;67.70;;;;;;2317862;54;20929;-70
2021/10/30 10:53:56;;;;;;;12.02;6.55;;;11.00;67.80;;;;;;2431284;53;21015;-69
2021/10/30 10:56:23;;;;;;;11.40;7.35;;;11.00;67.80;;;;;;2316134;54;21019;-69
2021/10/30 10:59:02;;;;;;;11.75;7.70;;;11.00;67.90;;;;;;2303819;55;21086;-69
2021/10/30 11:01:28;;;;;;;10.00;6.60;;;11.00;68.10;;;;;;2315799;54;21422;-70
2021/10/30 11:04:11;;;;;;;10.13;7.03;;;11.00;68.10;;;;;;2312158;53;20956;-70
2021/10/30 11:06:42;;;;;;;11.65;6.87;;;11.00;68.20;;;;;;2316052;54;21030;-69
2021/10/30 11:09:15;;;;;;;7.90;5.85;;;11.10;68.40;;;;;;2451207;54;21030;-68
2021/10/30 11:11:41;;;;;;;10.50;6.43;;;11.10;68.40;;;;;;2392577;53;21318;-69
2021/10/30 11:14:09;;;;;;;8.45;5.55;;;11.10;68.40;;;;;;2317551;54;20975;-70
2021/10/30 11:16:42;;;;;;;9.80;5.70;;;11.20;68.50;;;;;;2316938;54;20989;-69
2021/10/30 11:19:17;;;;;;;9.20;5.78;;;11.20;68.60;;;;;;2316911;55;21827;-70
2021/10/30 11:21:46;;;;;;;10.25;5.72;;;11.20;68.60;;;;;;2316916;54;20971;-69
2021/10/30 11:24:17;;;;;;;9.02;6.05;;;11.20;68.60;;;;;;2347704;54;20969;-68
2021/10/30 11:26:53;;;;;;;8.87;6.43;;;11.20;68.60;;;;;;2317246;54;20957;-69
2021/10/30 11:29:19;;;;;;;11.12;6.20;;;11.30;68.70;;;;;;2487183;53;20971;-69
2021/10/30 11:32:02;;;;;;;9.90;6.45;;;11.30;68.80;;;;;;2305574;54;22006;-69
2021/10/30 11:34:29;;;;;;;7.78;5.32;;;11.30;68.80;;;;;;2420547;54;21721;-70
2021/10/30 11:36:56;;;;;;;8.85;5.45;;;11.40;68.90;;;;;;2389830;54;20963;-69
2021/10/30 11:39:23;;;;;;;7.60;5.15;;;11.40;68.90;;;;;;2317862;54;20943;-69
2021/10/30 11:41:50;;;;;;;9.23;5.68;;;11.40;69.00;;;;;;2317389;55;20931;-69
2021/10/30 11:44:18;;;;;;;8.93;5.55;;;11.40;69.10;;;;;;2316939;55;20969;-70
2021/10/30 11:46:45;;;;;;;8.32;5.57;;;11.40;69.10;;;;;;2316905;54;20974;-70
2021/10/30 11:49:33;;;;;;;8.05;5.55;;;11.40;69.10;;;;;;2321277;54;20974;-69
2021/10/30 11:52:01;;;;;;;8.43;5.53;;;11.50;69.10;;;;;;2302924;54;20959;-69
2021/10/30 11:54:27;;;;;;;8.50;6.03;;;11.50;69.10;;;;;;2317369;55;21557;-70
2021/10/30 11:56:54;;;;;;;8.15;5.62;;;11.50;69.80;;;;;;2314557;55;21933;-70
2021/10/30 11:59:21;;;;;;;7.93;5.25;;;11.50;69.10;;;;;;2316775;55;20950;-68
2021/10/30 12:01:59;;;;;;;8.77;5.47;;;11.60;69.20;;;;;;2317241;55;21022;-69
2021/10/30 12:04:33;;;;;;;9.23;6.22;;;11.60;69.20;;;;;;2317261;55;20967;-70
2021/10/30 12:07:08;;;;;;;8.82;5.90;;;11.60;69.20;;;;;;2294801;55;20974;-68
2021/10/30 12:09:41;;;;;;;10.60;6.22;;;11.60;69.20;;;;;;2316803;54;21015;-69
2021/10/30 12:12:22;;;;;;;13.13;7.18;;;11.60;69.30;;;;;;2319176;54;21448;-69
2021/10/30 12:14:52;;;;;;;8.73;5.43;;;11.60;69.40;;;;;;2317207;55;20931;-70
2021/10/30 12:17:21;;;;;;;9.90;7.10;;;11.70;69.60;;;;;;2317498;54;21085;-70
2021/10/30 12:19:53;;;;;;;9.27;6.15;;;11.60;69.60;;;;;;2321765;54;20929;-70
2021/10/30 12:22:25;;;;;;;10.02;6.85;;;11.70;69.80;;;;;;2315496;54;20979;-69
2021/10/30 12:26:05;;;;;;;10.45;6.25;;;11.70;69.90;;;;;;2548141;54;20995;-68
2021/10/30 12:28:34;;;;;;;9.05;6.05;;;11.80;69.90;;;;;;2375430;54;20943;-69
2021/10/30 12:31:05;;;;;;;10.32;6.15;;;11.80;70.80;;;;;;2307659;54;21030;-69
2021/10/30 12:33:34;;;;;;;8.23;6.18;;;11.80;70.10;;;;;;2372257;54;21820;-69
2021/10/30 12:36:00;;;;;;;9.00;6.32;;;11.80;70.20;;;;;;2316400;54;21017;-70
2021/10/30 12:38:27;;;;;;;9.68;6.82;;;11.90;70.30;;;;;;2317605;54;21035;-69
2021/10/30 12:40:56;;;;;;;11.07;7.05;;;11.90;70.40;;;;;;2306538;54;20987;-70
2021/10/30 12:43:26;;;;;;;11.07;7.32;;;12.00;70.60;;;;;;2319447;54;20955;-69
2021/10/30 12:46:11;;;;;;;15.05;8.00;;;12.00;70.70;;;;;;2318312;54;20996;-70
2021/10/30 12:49:12;;;;;;;10.60;6.95;;;12.00;70.40;;;;;;2316248;55;21479;-69
2021/10/30 12:51:39;;;;;;;10.10;6.03;;;12.10;70.30;;;;;;2294876;54;20903;-70
2021/10/30 12:54:06;;;;;;;9.70;6.62;;;12.10;70.40;;;;;;2316876;55;20966;-69
2021/10/30 12:56:41;;;;;;;11.60;7.43;;;12.10;70.50;;;;;;2377132;53;20959;-69
2021/10/30 12:59:09;;;;;;;11.27;7.55;;;12.10;70.60;;;;;;2306010;54;20943;-70
2021/10/30 13:01:36;;;;;;;10.90;7.25;;;12.20;70.70;;;;;;2318436;54;20990;-70